Time;durP1;ratioP1;P1;durP2;ratioP2;P2;SDS_P1;SDS_P2;PMS_P1;PMS_P2;Temp;Humidity;BMP_temperature;BMP_pressure;BME280_temperature;BME280_humidity;BME280_pressure;Samples;Min_cycle;Max_cycle;Signal;HPM_P1;HPM_P2
2021/03/02 00:00:10;;;;;;;19.27;11.30;;;11.10;62.20;;;;;;5089534;28;21033;-52
2021/03/02 00:02:39;;;;;;;15.93;10.10;;;11.00;62.00;;;;;;5089581;28;20690;-51
2021/03/02 00:05:07;;;;;;;16.67;10.27;;;11.00;61.50;;;;;;5090065;28;20643;-50
2021/03/02 00:07:34;;;;;;;18.93;11.60;;;10.90;61.50;;;;;;5088307;28;21001;-51
2021/03/02 00:10:02;;;;;;;17.00;11.33;;;10.90;61.50;;;;;;5089400;28;20616;-51
2021/03/02 00:12:29;;;;;;;15.90;9.70;;;10.90;61.10;;;;;;5089852;28;20636;-51
2021/03/02 00:14:56;;;;;;;16.13;10.40;;;10.90;60.70;;;;;;5090037;28;20747;-51
2021/03/02 00:17:26;;;;;;;15.70;10.37;;;10.80;60.40;;;;;;5090150;28;21176;-51
2021/03/02 00:20:03;;;;;;;16.33;9.77;;;10.80;60.40;;;;;;5089946;28;20628;-51
2021/03/02 00:22:33;;;;;;;14.93;9.70;;;10.80;60.10;;;;;;5088322;28;20620;-51
2021/03/02 00:25:03;;;;;;;16.60;10.03;;;10.80;59.70;;;;;;5069582;28;20753;-50
2021/03/02 00:27:30;;;;;;;13.03;8.60;;;10.80;59.50;;;;;;5069307;28;20629;-50
2021/03/02 00:29:56;;;;;;;13.37;8.03;;;10.80;59.20;;;;;;5068925;28;20617;-50
2021/03/02 00:32:23;;;;;;;13.47;8.40;;;10.70;58.80;;;;;;5087563;28;20620;-50
2021/03/02 00:34:50;;;;;;;16.47;8.90;;;10.80;58.60;;;;;;5089526;28;20620;-50
2021/03/02 00:37:17;;;;;;;15.00;9.03;;;10.90;58.30;;;;;;5089293;28;20681;-50
2021/03/02 00:39:43;;;;;;;13.83;9.03;;;10.90;57.80;;;;;;5087090;28;21186;-48
2021/03/02 00:42:11;;;;;;;15.87;8.10;;;10.80;57.60;;;;;;5093211;28;20631;-50
2021/03/02 00:44:38;;;;;;;15.53;7.87;;;10.90;57.30;;;;;;5093343;28;20689;-53
2021/03/02 00:47:05;;;;;;;12.07;6.40;;;11.00;57.10;;;;;;5072515;28;20671;-53
2021/03/02 00:49:31;;;;;;;12.87;7.90;;;10.90;57.00;;;;;;5082981;28;20655;-52
2021/03/02 00:51:58;;;;;;;11.07;6.60;;;10.90;56.80;;;;;;5084147;28;20628;-53
2021/03/02 00:54:25;;;;;;;12.97;7.13;;;11.00;56.60;;;;;;5093491;28;20658;-52
2021/03/02 00:56:52;;;;;;;15.13;8.40;;;10.90;56.30;;;;;;5093167;28;20639;-53
2021/03/02 00:59:19;;;;;;;12.07;7.50;;;10.90;56.20;;;;;;5092322;28;20717;-52
2021/03/02 01:01:46;;;;;;;11.87;7.53;;;11.00;56.20;;;;;;5093422;28;20654;-52
2021/03/02 01:04:13;;;;;;;13.20;8.17;;;11.00;56.00;;;;;;5093884;28;20667;-52
2021/03/02 01:06:39;;;;;;;13.37;8.37;;;11.00;55.90;;;;;;5092988;28;20689;-53
2021/03/02 01:09:07;;;;;;;19.23;8.20;;;11.00;55.80;;;;;;5093548;28;20685;-52
2021/03/02 01:11:34;;;;;;;11.50;6.90;;;11.10;55.80;;;;;;5091394;28;20931;-52
2021/03/02 01:14:01;;;;;;;12.77;7.03;;;11.10;55.50;;;;;;5093205;28;20655;-53
2021/03/02 01:16:28;;;;;;;14.60;6.63;;;11.00;55.40;;;;;;5093697;28;20652;-53
2021/03/02 01:18:55;;;;;;;13.17;7.73;;;11.10;55.40;;;;;;5086491;28;20630;-53
2021/03/02 01:21:22;;;;;;;14.80;7.90;;;11.10;55.30;;;;;;5073360;28;20684;-52
2021/03/02 01:23:49;;;;;;;12.30;6.70;;;11.00;55.20;;;;;;5072726;28;20727;-52
2021/03/02 01:26:15;;;;;;;18.33;9.50;;;11.00;55.20;;;;;;5073272;28;20686;-52
2021/03/02 01:28:42;;;;;;;11.67;7.57;;;10.90;55.30;;;;;;5088858;28;20624;-51
2021/03/02 01:31:09;;;;;;;23.77;9.70;;;10.80;55.30;;;;;;5092645;28;21101;-51
2021/03/02 01:33:36;;;;;;;11.87;7.50;;;10.80;55.40;;;;;;5092300;28;20653;-52
2021/03/02 01:36:03;;;;;;;16.47;9.40;;;10.80;55.60;;;;;;5092324;28;20624;-51
2021/03/02 01:38:31;;;;;;;14.50;8.67;;;10.70;55.60;;;;;;5092318;28;20623;-51
2021/03/02 01:40:57;;;;;;;12.20;7.60;;;10.70;55.80;;;;;;5091684;28;20685;-51
2021/03/02 01:43:24;;;;;;;12.90;8.20;;;10.70;55.80;;;;;;5092365;28;20713;-51
2021/03/02 01:45:51;;;;;;;15.07;7.33;;;10.70;55.80;;;;;;5091895;28;20678;-52
2021/03/02 01:48:17;;;;;;;15.00;9.60;;;10.70;55.80;;;;;;5092118;28;20698;-51
2021/03/02 01:50:45;;;;;;;13.47;8.63;;;10.60;55.90;;;;;;5093257;28;20986;-51
2021/03/02 01:53:12;;;;;;;15.00;7.90;;;10.60;55.90;;;;;;5092091;28;20656;-51
2021/03/02 01:55:38;;;;;;;20.10;8.87;;;10.60;55.90;;;;;;5093141;28;20662;-51
2021/03/02 01:58:05;;;;;;;23.47;9.43;;;10.70;56.00;;;;;;5092655;28;20952;-50
2021/03/02 02:00:33;;;;;;;12.03;8.03;;;10.70;55.90;;;;;;5076464;28;20624;-51
2021/03/02 02:03:13;;;;;;;14.03;7.10;;;10.60;55.60;;;;;;5073922;28;20706;-52
2021/03/02 02:05:42;;;;;;;15.20;8.53;;;10.60;55.70;;;;;;5072562;28;20633;-52
2021/03/02 02:08:10;;;;;;;13.50;9.03;;;10.60;55.70;;;;;;5087899;28;20675;-52
2021/03/02 02:10:42;;;;;;;12.70;7.23;;;10.60;55.70;;;;;;5090643;28;20642;-51
2021/03/02 02:13:10;;;;;;;16.40;9.03;;;10.60;55.70;;;;;;5091976;28;20656;-52
2021/03/02 02:15:37;;;;;;;14.83;8.10;;;10.50;55.60;;;;;;5091957;28;20787;-52
2021/03/02 02:18:06;;;;;;;15.50;7.90;;;10.50;55.70;;;;;;5092216;28;20695;-52
2021/03/02 02:20:41;;;;;;;12.70;7.67;;;10.50;55.70;;;;;;5091975;28;20677;-51
2021/03/02 02:23:11;;;;;;;15.97;8.50;;;10.50;55.80;;;;;;5092323;28;20748;-52
2021/03/02 02:25:42;;;;;;;13.43;7.77;;;10.50;55.90;;;;;;5091599;28;20701;-51
2021/03/02 02:28:10;;;;;;;13.07;8.27;;;10.50;55.90;;;;;;5091709;28;20980;-51
2021/03/02 02:30:38;;;;;;;13.20;7.40;;;10.50;55.90;;;;;;5092150;28;20628;-50
2021/03/02 02:33:06;;;;;;;13.10;7.57;;;10.50;55.70;;;;;;5092070;28;20663;-51
2021/03/02 02:35:33;;;;;;;14.40;8.40;;;10.50;55.70;;;;;;5091813;28;20632;-52
2021/03/02 02:38:00;;;;;;;15.33;8.43;;;10.50;55.70;;;;;;5091483;28;20620;-51
2021/03/02 02:40:26;;;;;;;13.77;8.23;;;10.50;55.80;;;;;;5092273;28;20620;-51
2021/03/02 02:42:55;;;;;;;14.10;8.93;;;10.50;55.80;;;;;;5090998;28;20660;-51
2021/03/02 02:45:22;;;;;;;13.60;7.43;;;10.40;55.80;;;;;;5090259;28;20660;-51
2021/03/02 02:47:50;;;;;;;13.53;8.20;;;10.40;55.90;;;;;;5091701;28;21024;-51
2021/03/02 02:50:17;;;;;;;15.37;8.90;;;10.30;56.00;;;;;;5089717;28;21188;-51
2021/03/02 02:52:44;;;;;;;14.50;8.93;;;10.30;56.10;;;;;;5091578;28;21046;-50
2021/03/02 02:55:11;;;;;;;13.90;8.50;;;10.30;56.30;;;;;;5091533;28;21215;-50
2021/03/02 02:57:40;;;;;;;17.03;9.20;;;10.20;56.20;;;;;;5090518;28;20628;-51
2021/03/02 03:00:07;;;;;;;16.63;9.03;;;10.30;56.20;;;;;;5090970;28;20623;-50
2021/03/02 03:02:35;;;;;;;13.83;7.60;;;10.30;56.20;;;;;;5090167;28;20628;-51
2021/03/02 03:05:04;;;;;;;18.27;8.47;;;10.30;56.10;;;;;;5089262;28;20693;-52
2021/03/02 03:07:34;;;;;;;14.07;8.47;;;10.20;56.20;;;;;;5090903;28;21103;-52
2021/03/02 03:10:01;;;;;;;15.80;8.23;;;10.20;56.20;;;;;;5091359;28;21184;-51
2021/03/02 03:12:27;;;;;;;14.97;8.57;;;10.20;56.10;;;;;;5090584;28;20632;-51
2021/03/02 03:14:56;;;;;;;11.43;6.70;;;10.20;56.20;;;;;;5091329;28;20649;-51
2021/03/02 03:17:22;;;;;;;14.50;6.87;;;10.30;56.20;;;;;;5090476;28;20616;-52
2021/03/02 03:19:50;;;;;;;14.90;8.40;;;10.20;56.00;;;;;;5090811;28;20640;-51
2021/03/02 03:22:17;;;;;;;14.33;8.47;;;10.20;56.20;;;;;;5090802;28;20964;-52
2021/03/02 03:24:44;;;;;;;15.07;8.50;;;10.20;56.20;;;;;;5085733;28;20668;-52
2021/03/02 03:27:10;;;;;;;14.60;7.47;;;10.20;56.20;;;;;;5096497;27;20632;-53
2021/03/02 03:29:37;;;;;;;15.00;7.83;;;10.20;56.30;;;;;;5070428;28;20629;-52
2021/03/02 03:32:04;;;;;;;13.63;8.20;;;10.20;56.20;;;;;;5077871;28;20745;-52
2021/03/02 03:34:31;;;;;;;16.23;7.40;;;10.20;56.30;;;;;;5089886;28;21232;-52
2021/03/02 03:36:58;;;;;;;15.60;8.67;;;10.20;56.30;;;;;;5091039;28;20690;-52
2021/03/02 03:39:25;;;;;;;17.57;8.13;;;10.10;56.30;;;;;;5090637;28;20632;-52
2021/03/02 03:41:52;;;;;;;16.57;6.93;;;10.10;56.40;;;;;;5091138;28;20624;-52
2021/03/02 03:44:19;;;;;;;16.43;7.80;;;10.10;56.50;;;;;;5089465;28;20801;-52
2021/03/02 03:46:45;;;;;;;14.60;8.50;;;10.00;56.60;;;;;;5088991;28;20632;-52
2021/03/02 03:49:12;;;;;;;14.40;8.33;;;10.00;56.70;;;;;;5090309;28;21469;-52
2021/03/02 03:51:39;;;;;;;18.63;7.90;;;10.00;56.80;;;;;;5090086;28;20650;-52
2021/03/02 03:54:07;;;;;;;15.33;8.03;;;10.00;56.80;;;;;;5074268;28;20705;-52
2021/03/02 03:56:34;;;;;;;15.53;8.60;;;10.00;56.70;;;;;;5070168;28;21165;-52
2021/03/02 03:59:01;;;;;;;16.37;8.83;;;9.90;57.50;;;;;;5069708;28;20622;-52
2021/03/02 04:01:28;;;;;;;14.07;8.57;;;9.90;57.70;;;;;;5085473;28;20628;-52
2021/03/02 04:03:55;;;;;;;15.87;9.17;;;9.90;58.10;;;;;;5088140;28;20721;-52
2021/03/02 04:06:21;;;;;;;13.50;7.77;;;9.90;57.60;;;;;;5090189;28;20625;-52
2021/03/02 04:08:48;;;;;;;15.17;7.93;;;9.90;57.70;;;;;;5089742;28;20628;-52
2021/03/02 04:11:16;;;;;;;14.10;8.23;;;9.90;57.90;;;;;;5090384;28;20636;-52
2021/03/02 04:13:43;;;;;;;18.17;7.67;;;9.90;58.00;;;;;;5089478;28;20660;-53
2021/03/02 04:16:09;;;;;;;14.67;7.87;;;9.80;57.90;;;;;;5069787;28;20678;-52
2021/03/02 04:18:36;;;;;;;15.37;8.83;;;9.80;57.90;;;;;;5069746;28;20621;-52
2021/03/02 04:21:03;;;;;;;16.47;8.30;;;9.80;58.00;;;;;;5070511;28;20694;-52
2021/03/02 04:23:30;;;;;;;14.50;7.53;;;9.80;58.00;;;;;;5073012;28;20717;-52
2021/03/02 04:25:57;;;;;;;16.27;9.13;;;9.70;58.10;;;;;;5089837;28;20678;-52
2021/03/02 04:28:24;;;;;;;14.10;8.07;;;9.70;58.20;;;;;;5089504;28;20627;-51
2021/03/02 04:30:51;;;;;;;16.60;8.03;;;9.70;58.40;;;;;;5072191;28;21005;-52
2021/03/02 04:33:18;;;;;;;16.70;9.17;;;9.60;58.50;;;;;;5069688;28;20680;-52
2021/03/02 04:35:44;;;;;;;17.07;9.27;;;9.60;58.50;;;;;;5074766;28;20624;-52
2021/03/02 04:38:11;;;;;;;15.53;8.33;;;9.60;58.70;;;;;;5089793;28;20662;-52
2021/03/02 04:40:38;;;;;;;17.90;8.67;;;9.50;58.80;;;;;;5089284;28;20628;-52
2021/03/02 04:43:05;;;;;;;13.03;7.37;;;9.50;58.90;;;;;;5089984;28;20658;-52
2021/03/02 04:45:32;;;;;;;14.00;7.37;;;9.50;58.90;;;;;;5089848;28;20690;-51
2021/03/02 04:47:59;;;;;;;16.43;9.90;;;9.50;58.90;;;;;;5089294;28;20636;-52
2021/03/02 04:50:26;;;;;;;17.37;8.20;;;9.40;58.90;;;;;;5089199;28;20722;-51
2021/03/02 04:52:52;;;;;;;15.70;8.40;;;9.40;59.00;;;;;;5089587;28;20662;-52
2021/03/02 04:55:19;;;;;;;16.13;8.57;;;9.30;59.10;;;;;;5089568;28;20665;-52
2021/03/02 04:57:46;;;;;;;19.60;8.60;;;9.30;59.20;;;;;;5089783;28;20632;-52
2021/03/02 05:00:13;;;;;;;14.00;8.60;;;9.40;59.40;;;;;;5089993;28;21031;-52
2021/03/02 05:02:41;;;;;;;14.47;8.67;;;9.30;59.10;;;;;;5089342;28;21206;-54
2021/03/02 05:05:09;;;;;;;17.20;10.47;;;9.30;59.20;;;;;;5087354;28;20644;-54
2021/03/02 05:07:35;;;;;;;15.90;9.47;;;9.20;59.00;;;;;;5089763;28;20624;-52
2021/03/02 05:10:03;;;;;;;18.23;9.53;;;9.10;59.20;;;;;;5089464;28;21208;-53
2021/03/02 05:12:29;;;;;;;17.00;9.10;;;9.00;59.30;;;;;;5088800;28;20653;-52
2021/03/02 05:14:56;;;;;;;15.97;9.20;;;9.00;59.50;;;;;;5089476;28;20625;-52
2021/03/02 05:17:23;;;;;;;15.13;9.13;;;9.00;59.70;;;;;;5089722;28;20695;-53
2021/03/02 05:19:50;;;;;;;14.13;9.20;;;9.10;59.70;;;;;;5088734;28;20709;-53
2021/03/02 05:22:17;;;;;;;15.57;9.50;;;9.10;59.50;;;;;;5090152;28;20623;-52
2021/03/02 05:24:43;;;;;;;15.50;8.30;;;9.10;59.40;;;;;;5087872;28;20729;-53
2021/03/02 05:27:10;;;;;;;17.27;10.40;;;9.10;59.70;;;;;;5091772;28;20687;-53
2021/03/02 05:29:37;;;;;;;17.87;9.70;;;9.10;59.70;;;;;;5092421;28;20628;-53
2021/03/02 05:32:04;;;;;;;15.73;8.63;;;9.10;59.70;;;;;;5092989;28;20627;-53
2021/03/02 05:34:31;;;;;;;15.97;8.93;;;9.10;59.70;;;;;;5086935;28;21250;-53
2021/03/02 05:36:59;;;;;;;18.80;9.83;;;9.10;59.70;;;;;;5093689;28;20675;-53
2021/03/02 05:39:25;;;;;;;19.13;10.90;;;9.10;59.60;;;;;;5097956;28;20662;-51
2021/03/02 05:41:52;;;;;;;16.17;9.00;;;9.10;59.70;;;;;;5093155;28;20635;-53
2021/03/02 05:44:19;;;;;;;17.27;9.10;;;9.00;59.80;;;;;;5091232;28;20713;-52
2021/03/02 05:46:45;;;;;;;19.83;11.30;;;9.00;60.10;;;;;;5096938;28;20662;-52
2021/03/02 05:49:12;;;;;;;16.80;8.87;;;9.00;60.30;;;;;;5099570;27;20620;-53
2021/03/02 05:51:40;;;;;;;18.80;9.90;;;8.90;60.40;;;;;;5109163;28;20626;-51
2021/03/02 05:54:07;;;;;;;15.87;9.33;;;8.90;60.60;;;;;;5101897;28;20720;-52
2021/03/02 05:56:36;;;;;;;17.53;9.10;;;8.80;60.90;;;;;;5092914;28;20634;-51
2021/03/02 05:59:03;;;;;;;16.50;9.50;;;8.80;61.10;;;;;;5092173;28;20665;-52
2021/03/02 06:01:30;;;;;;;18.00;9.50;;;8.70;61.10;;;;;;5092850;28;20626;-52
2021/03/02 06:03:56;;;;;;;15.43;9.40;;;8.70;61.40;;;;;;5079529;28;20667;-53
2021/03/02 06:06:23;;;;;;;16.73;9.73;;;8.70;61.70;;;;;;5072791;28;20631;-53
2021/03/02 06:08:50;;;;;;;19.63;9.90;;;8.70;62.00;;;;;;5091455;28;21168;-51
2021/03/02 06:11:28;;;;;;;18.30;10.20;;;8.70;61.90;;;;;;5088178;28;20665;-52
2021/03/02 06:13:55;;;;;;;20.47;9.90;;;8.80;61.80;;;;;;5091786;28;20667;-51
2021/03/02 06:16:22;;;;;;;18.80;9.07;;;8.80;61.70;;;;;;5094560;28;20702;-51
2021/03/02 06:18:52;;;;;;;17.40;9.70;;;8.80;61.70;;;;;;5103126;28;20635;-51
2021/03/02 06:21:19;;;;;;;18.07;10.10;;;8.80;61.70;;;;;;5100684;28;20679;-52
2021/03/02 06:23:50;;;;;;;21.50;9.57;;;8.70;61.80;;;;;;5097020;28;20778;-51
2021/03/02 06:26:24;;;;;;;19.50;9.80;;;8.70;61.90;;;;;;5103759;28;20646;-52
2021/03/02 06:28:53;;;;;;;18.33;10.43;;;8.70;62.30;;;;;;5090493;28;20661;-51
2021/03/02 06:31:38;;;;;;;18.87;10.77;;;8.60;62.70;;;;;;5094055;28;21178;-52
2021/03/02 06:34:09;;;;;;;18.90;10.00;;;8.60;62.90;;;;;;5096223;28;20662;-52
2021/03/02 06:36:36;;;;;;;19.13;10.23;;;8.60;63.20;;;;;;5099104;28;20661;-52
2021/03/02 06:39:26;;;;;;;18.57;10.30;;;8.60;63.40;;;;;;5093632;28;20703;-51
2021/03/02 06:41:54;;;;;;;19.33;9.73;;;8.70;63.60;;;;;;5104255;28;20693;-51
2021/03/02 06:44:21;;;;;;;19.10;10.87;;;8.70;63.40;;;;;;5094551;28;20717;-52
2021/03/02 06:46:48;;;;;;;17.30;11.07;;;8.70;63.20;;;;;;5083055;28;20696;-52
2021/03/02 06:49:14;;;;;;;18.17;11.23;;;8.80;63.20;;;;;;5090629;28;20631;-52
2021/03/02 06:51:41;;;;;;;17.67;10.13;;;8.80;63.00;;;;;;5081872;28;20745;-51
2021/03/02 06:54:10;;;;;;;16.60;9.97;;;8.80;62.90;;;;;;5085602;28;21004;-52
2021/03/02 06:56:39;;;;;;;18.20;10.27;;;8.80;62.80;;;;;;5087763;28;20643;-52
2021/03/02 06:59:10;;;;;;;18.30;9.77;;;8.90;62.80;;;;;;5091419;28;20623;-52
2021/03/02 07:01:38;;;;;;;19.30;10.33;;;8.90;62.90;;;;;;5096427;28;20630;-52
2021/03/02 07:04:12;;;;;;;20.97;10.57;;;8.90;63.00;;;;;;5087839;28;20677;-52
2021/03/02 07:06:39;;;;;;;15.60;8.80;;;9.00;63.10;;;;;;5082992;28;20628;-52
2021/03/02 07:09:06;;;;;;;19.00;11.13;;;9.00;62.90;;;;;;5093430;28;20667;-52
2021/03/02 07:11:34;;;;;;;20.30;11.70;;;9.00;62.90;;;;;;5102892;27;21196;-52
2021/03/02 07:14:02;;;;;;;16.93;9.80;;;9.00;62.90;;;;;;5095930;28;20695;-52
2021/03/02 07:16:29;;;;;;;17.30;9.90;;;9.10;62.80;;;;;;5090017;28;20700;-53
2021/03/02 07:18:57;;;;;;;25.50;14.03;;;9.10;62.90;;;;;;5090446;28;20636;-52
2021/03/02 07:21:24;;;;;;;19.40;11.07;;;9.20;62.60;;;;;;5087218;28;20632;-52
2021/03/02 07:23:53;;;;;;;21.53;11.57;;;9.30;62.40;;;;;;5097607;28;20664;-52
2021/03/02 07:26:20;;;;;;;21.13;11.50;;;9.40;62.60;;;;;;5098439;28;21019;-53
2021/03/02 07:28:47;;;;;;;17.40;9.67;;;9.60;62.20;;;;;;5096040;28;21007;-53
2021/03/02 07:31:15;;;;;;;21.77;11.03;;;9.80;61.00;;;;;;5086195;28;20758;-53
2021/03/02 07:33:41;;;;;;;18.97;10.23;;;9.90;60.10;;;;;;5083090;28;20717;-53
2021/03/02 07:36:09;;;;;;;17.97;8.60;;;10.00;59.00;;;;;;5094761;28;21160;-51
2021/03/02 07:38:36;;;;;;;17.77;9.30;;;10.20;59.00;;;;;;5087034;28;20613;-51
2021/03/02 07:41:03;;;;;;;18.80;10.57;;;10.40;58.20;;;;;;5091006;28;20628;-51
2021/03/02 07:43:33;;;;;;;20.37;9.67;;;10.60;57.70;;;;;;5077484;28;20729;-51
2021/03/02 07:46:01;;;;;;;17.00;9.80;;;10.80;57.70;;;;;;5088254;28;20681;-51
2021/03/02 07:48:29;;;;;;;18.97;11.47;;;11.00;56.70;;;;;;5109071;28;20619;-51
2021/03/02 07:51:19;;;;;;;16.60;9.60;;;11.10;56.40;;;;;;5109945;28;20621;-52
2021/03/02 07:53:46;;;;;;;20.33;11.43;;;11.20;56.10;;;;;;5110641;28;20743;-52
2021/03/02 07:56:26;;;;;;;23.07;10.37;;;11.30;55.90;;;;;;5110292;28;20627;-51
2021/03/02 07:59:18;;;;;;;18.30;10.50;;;11.40;55.50;;;;;;5085525;28;20631;-52
2021/03/02 08:01:45;;;;;;;20.70;10.87;;;11.50;55.10;;;;;;5070233;28;20621;-52
2021/03/02 08:04:24;;;;;;;16.63;10.10;;;11.40;54.80;;;;;;5070134;28;21157;-52
2021/03/02 08:06:52;;;;;;;18.43;10.97;;;11.40;54.90;;;;;;5070184;28;20630;-54
2021/03/02 08:09:29;;;;;;;20.77;11.87;;;11.30;55.00;;;;;;5069742;28;20613;-52
2021/03/02 08:12:12;;;;;;;20.57;11.83;;;11.30;55.00;;;;;;5080897;28;20709;-52
2021/03/02 08:14:39;;;;;;;20.63;11.53;;;11.40;55.10;;;;;;5089731;28;20717;-52
2021/03/02 08:17:06;;;;;;;19.73;12.00;;;11.50;55.10;;;;;;5090260;28;20701;-53
2021/03/02 08:19:40;;;;;;;17.20;10.60;;;11.60;54.90;;;;;;5074318;28;20976;-52
2021/03/02 08:22:58;;;;;;;17.03;10.57;;;11.70;54.90;;;;;;5070309;28;20623;-52
2021/03/02 08:25:27;;;;;;;20.83;11.63;;;12.00;54.40;;;;;;5069552;28;20669;-53
2021/03/02 08:27:59;;;;;;;18.30;10.17;;;12.30;53.80;;;;;;5069447;28;20691;-54
2021/03/02 08:30:27;;;;;;;20.97;11.23;;;12.60;53.50;;;;;;5075145;28;20640;-52
2021/03/02 08:32:55;;;;;;;23.80;10.80;;;13.00;52.80;;;;;;5087799;28;20659;-53
2021/03/02 08:35:24;;;;;;;17.33;11.40;;;13.30;52.10;;;;;;5089971;28;20624;-53
2021/03/02 08:37:51;;;;;;;19.10;11.07;;;13.60;51.40;;;;;;5089712;28;20632;-52
2021/03/02 08:40:19;;;;;;;20.27;10.80;;;13.90;50.60;;;;;;5089097;28;20844;-53
2021/03/02 08:43:05;;;;;;;20.17;11.17;;;14.10;49.70;;;;;;5089867;28;20749;-53
2021/03/02 08:45:34;;;;;;;19.87;12.50;;;14.10;49.00;;;;;;5089847;28;20682;-52
2021/03/02 08:48:21;;;;;;;16.93;10.70;;;14.20;48.70;;;;;;5089566;28;20640;-54
2021/03/02 08:50:49;;;;;;;18.03;9.90;;;14.10;48.50;;;;;;5089851;28;20620;-53
2021/03/02 08:53:29;;;;;;;18.17;10.30;;;14.10;48.80;;;;;;5088008;28;20740;-52
2021/03/02 08:55:56;;;;;;;21.90;11.90;;;14.00;48.60;;;;;;5089668;28;20647;-54
2021/03/02 08:58:28;;;;;;;15.80;11.87;;;14.00;48.50;;;;;;5089388;28;20624;-53
2021/03/02 09:01:03;;;;;;;11.70;10.50;;;13.80;48.70;;;;;;5089143;28;20790;-53
2021/03/02 09:03:30;;;;;;;12.70;11.20;;;13.80;48.90;;;;;;5092029;28;20659;-53
2021/03/02 09:06:07;;;;;;;14.57;11.07;;;13.70;49.00;;;;;;5094468;28;20652;-52
2021/03/02 09:08:42;;;;;;;13.97;12.50;;;13.70;49.00;;;;;;5092971;28;20639;-52
2021/03/02 09:11:08;;;;;;;15.20;11.93;;;13.60;49.10;;;;;;5092465;28;20669;-52
2021/03/02 09:13:37;;;;;;;12.30;11.00;;;13.50;49.30;;;;;;5093246;28;21172;-52
2021/03/02 09:16:20;;;;;;;17.00;13.13;;;13.50;49.30;;;;;;5091782;28;20635;-52
2021/03/02 09:18:57;;;;;;;13.83;11.87;;;13.50;49.70;;;;;;5092438;28;20628;-53
2021/03/02 09:21:23;;;;;;;15.30;11.87;;;13.50;49.80;;;;;;5093328;28;20715;-52
2021/03/02 09:23:50;;;;;;;15.87;11.47;;;13.50;50.30;;;;;;5092069;28;20962;-52
2021/03/02 09:26:19;;;;;;;20.60;13.10;;;13.50;50.60;;;;;;5090863;28;21312;-54
2021/03/02 09:28:52;;;;;;;18.17;12.73;;;13.50;50.90;;;;;;5081421;28;20657;-52
2021/03/02 09:31:19;;;;;;;16.30;11.20;;;13.50;51.20;;;;;;5088755;28;20705;-53
2021/03/02 09:33:46;;;;;;;14.20;11.43;;;13.60;51.10;;;;;;5086108;28;20647;-53
2021/03/02 09:36:13;;;;;;;17.30;12.50;;;13.60;51.10;;;;;;5092348;28;20624;-52
2021/03/02 09:38:40;;;;;;;13.60;12.20;;;13.70;51.00;;;;;;5092583;28;20685;-53
2021/03/02 09:41:06;;;;;;;13.10;11.43;;;13.90;50.30;;;;;;5092310;28;20689;-53
2021/03/02 09:43:37;;;;;;;13.63;11.53;;;13.90;50.60;;;;;;5093669;28;20660;-52
2021/03/02 09:46:05;;;;;;;14.37;12.07;;;13.90;50.60;;;;;;5077747;28;20710;-54
2021/03/02 09:48:45;;;;;;;13.57;11.97;;;14.00;50.50;;;;;;5076915;28;20697;-51
2021/03/02 09:51:33;;;;;;;14.23;11.97;;;14.00;50.20;;;;;;5092615;28;21034;-52
2021/03/02 09:54:15;;;;;;;15.40;11.67;;;14.10;50.10;;;;;;5087825;28;20721;-52
2021/03/02 09:56:45;;;;;;;20.73;13.80;;;14.30;49.90;;;;;;5092771;28;20624;-52
2021/03/02 09:59:20;;;;;;;14.00;12.70;;;14.40;49.70;;;;;;5092606;28;20930;-52
2021/03/02 10:01:48;;;;;;;14.50;11.83;;;14.50;49.10;;;;;;5092445;28;20624;-53
2021/03/02 10:04:15;;;;;;;13.60;12.13;;;14.50;48.90;;;;;;5092970;28;20652;-52
2021/03/02 10:06:41;;;;;;;16.00;12.83;;;14.50;48.60;;;;;;5092596;28;20729;-53
2021/03/02 10:09:23;;;;;;;14.03;12.40;;;14.50;48.70;;;;;;5092484;28;20977;-53
2021/03/02 10:12:09;;;;;;;13.23;11.67;;;14.60;48.90;;;;;;5089211;28;20650;-52
2021/03/02 10:14:41;;;;;;;15.97;13.23;;;14.80;48.50;;;;;;5091654;28;20648;-52
2021/03/02 10:17:12;;;;;;;13.50;12.20;;;15.00;48.20;;;;;;5093514;28;20651;-53
2021/03/02 10:19:39;;;;;;;14.43;12.90;;;15.20;47.80;;;;;;5091602;28;20655;-55
2021/03/02 10:22:12;;;;;;;12.10;10.90;;;15.40;47.10;;;;;;5091763;28;20628;-54
2021/03/02 10:24:39;;;;;;;14.40;12.93;;;15.60;46.70;;;;;;5091603;28;20648;-50
2021/03/02 10:27:11;;;;;;;16.97;11.43;;;15.80;46.10;;;;;;5084762;28;20706;-52
2021/03/02 10:29:38;;;;;;;16.43;13.03;;;16.10;45.80;;;;;;5081769;28;21226;-51
2021/03/02 10:32:05;;;;;;;13.17;11.63;;;16.40;45.10;;;;;;5091433;28;20689;-52
2021/03/02 10:34:35;;;;;;;14.20;12.90;;;16.60;44.90;;;;;;5090734;28;20697;-52
2021/03/02 10:37:03;;;;;;;16.60;11.80;;;17.00;44.70;;;;;;5091346;28;20620;-52
2021/03/02 10:39:30;;;;;;;19.90;13.00;;;17.40;43.80;;;;;;5091370;28;20677;-52
2021/03/02 10:41:56;;;;;;;16.10;14.50;;;17.70;43.10;;;;;;5079151;28;20629;-51
2021/03/02 10:44:23;;;;;;;18.37;15.60;;;17.70;41.40;;;;;;5082380;28;20652;-51
2021/03/02 10:46:50;;;;;;;13.97;12.70;;;17.70;41.70;;;;;;5090559;28;20648;-51
2021/03/02 10:49:17;;;;;;;13.67;11.87;;;17.70;41.80;;;;;;5078847;28;20625;-52
2021/03/02 10:51:45;;;;;;;14.87;13.47;;;17.70;41.30;;;;;;5070913;28;20659;-52
2021/03/02 10:54:12;;;;;;;14.93;13.43;;;17.60;41.30;;;;;;5075002;28;20751;-51
2021/03/02 10:56:39;;;;;;;13.53;12.17;;;17.40;41.50;;;;;;5080049;28;20625;-52
2021/03/02 10:59:06;;;;;;;14.90;13.20;;;17.30;41.30;;;;;;5086649;28;20616;-52
2021/03/02 11:01:33;;;;;;;18.03;15.07;;;17.10;41.80;;;;;;5075013;28;21230;-52
2021/03/02 11:04:00;;;;;;;15.73;12.10;;;16.90;42.50;;;;;;5090556;28;20688;-53
2021/03/02 11:06:28;;;;;;;15.40;13.80;;;17.00;42.60;;;;;;5090772;28;20716;-52
2021/03/02 11:08:57;;;;;;;16.47;15.03;;;17.20;42.20;;;;;;5095337;28;20666;-50
2021/03/02 11:11:46;;;;;;;12.77;11.50;;;17.50;41.30;;;;;;5092449;28;20640;-52
2021/03/02 11:14:13;;;;;;;14.27;12.77;;;17.70;41.30;;;;;;5090264;28;20691;-53
2021/03/02 11:16:40;;;;;;;15.17;12.20;;;17.70;41.00;;;;;;5089330;28;20784;-52
2021/03/02 11:19:07;;;;;;;14.13;12.13;;;17.60;41.00;;;;;;5068728;28;20679;-52
2021/03/02 11:21:34;;;;;;;14.57;13.20;;;17.50;41.20;;;;;;5069143;28;20633;-52
2021/03/02 11:24:01;;;;;;;13.03;11.93;;;17.50;41.50;;;;;;5085417;28;20698;-52
2021/03/02 11:26:30;;;;;;;12.50;11.23;;;17.70;41.00;;;;;;5085558;28;20656;-53
2021/03/02 11:28:56;;;;;;;13.17;11.83;;;17.90;40.50;;;;;;5089902;28;20777;-50
2021/03/02 11:31:23;;;;;;;16.83;15.47;;;18.00;40.40;;;;;;5085436;28;20691;-51
2021/03/02 11:33:50;;;;;;;18.37;16.90;;;18.30;40.40;;;;;;5077166;28;20640;-52
2021/03/02 11:36:18;;;;;;;18.57;17.03;;;19.00;39.70;;;;;;5091084;28;20677;-52
2021/03/02 11:38:45;;;;;;;15.77;14.37;;;19.90;38.40;;;;;;5076992;28;20701;-52
2021/03/02 11:41:13;;;;;;;15.60;11.50;;;20.70;36.40;;;;;;5089099;28;20704;-53
2021/03/02 11:43:40;;;;;;;13.87;12.57;;;21.00;35.10;;;;;;5090833;28;20705;-51
2021/03/02 11:46:07;;;;;;;13.77;12.53;;;20.90;35.30;;;;;;5088860;28;21056;-52
2021/03/02 11:48:34;;;;;;;12.80;11.47;;;21.10;35.10;;;;;;5088145;28;20628;-51
2021/03/02 11:51:00;;;;;;;15.37;13.87;;;21.60;34.40;;;;;;5088866;28;20636;-52
2021/03/02 11:53:27;;;;;;;13.20;11.90;;;21.90;33.60;;;;;;5082046;28;21146;-52
2021/03/02 11:55:54;;;;;;;13.50;11.93;;;22.80;32.50;;;;;;5069261;28;20618;-53
2021/03/02 11:58:22;;;;;;;11.70;10.60;;;23.00;31.80;;;;;;5068582;28;20625;-54
2021/03/02 12:00:49;;;;;;;12.63;10.23;;;22.80;31.50;;;;;;5069065;28;20621;-54
2021/03/02 12:03:15;;;;;;;14.80;11.37;;;22.20;31.90;;;;;;5085210;28;20657;-54
2021/03/02 12:05:42;;;;;;;12.53;10.90;;;22.00;32.30;;;;;;5069406;28;20656;-53
2021/03/02 12:08:09;;;;;;;12.60;11.33;;;23.50;31.30;;;;;;5070530;28;21039;-54
2021/03/02 12:10:36;;;;;;;11.57;10.57;;;22.70;30.70;;;;;;5068719;28;20628;-55
2021/03/02 12:13:18;;;;;;;12.90;11.70;;;21.80;31.80;;;;;;5069741;28;20660;-55
2021/03/02 12:15:49;;;;;;;12.07;10.70;;;22.90;32.50;;;;;;5069849;28;20674;-53
2021/03/02 12:18:38;;;;;;;12.90;11.60;;;24.20;30.90;;;;;;5086518;28;20630;-51
2021/03/02 12:21:06;;;;;;;13.47;12.27;;;23.80;30.40;;;;;;5043891;28;20641;-52
2021/03/02 12:23:32;;;;;;;11.90;10.73;;;23.60;30.60;;;;;;5081477;28;20703;-53
2021/03/02 12:25:59;;;;;;;11.70;10.50;;;24.70;30.50;;;;;;5089103;28;20708;-53
2021/03/02 12:28:26;;;;;;;13.93;12.43;;;25.50;29.60;;;;;;5089144;28;20633;-54
2021/03/02 12:30:53;;;;;;;13.20;11.90;;;24.60;29.10;;;;;;5089209;28;20617;-53
2021/03/02 12:33:20;;;;;;;16.10;11.60;;;23.80;29.90;;;;;;5087485;28;21063;-53
2021/03/02 12:35:47;;;;;;;14.20;12.90;;;23.20;30.20;;;;;;5088805;28;20624;-52
2021/03/02 12:38:14;;;;;;;14.50;13.10;;;23.60;30.60;;;;;;5077803;28;20629;-52
2021/03/02 12:40:40;;;;;;;13.40;12.20;;;24.00;30.30;;;;;;5070159;28;21154;-52
2021/03/02 12:43:07;;;;;;;12.43;11.13;;;24.10;29.90;;;;;;5080618;28;20660;-52